Impacts TAF Board INFO
FOR SITUATIONAL AWARENESS. NOT TO BE USED FOR FLIGHT PLANNING PURPOSES.
IDs:

KPHX - Phoenix/Sky Harbor, AZ, US

Issued at 2328 UTC 15 Dec 2017
Updated at 0137 UTC 16 Dec 2017
Potential Impact None Slight Moderate High
Time0051Z 16/02Z 16/03Z 16/04Z 16/05Z 16/06Z 16/07Z 16/08Z 16/09Z 16/10Z 16/11Z 16/12Z 16/13Z 16/14Z>>
Type OBS PRVL PRVL PRVL PRVL PRVL PRVL PRVL PRVL PRVL PRVL PRVL PRVL PRVL
VIS 10 >6 >6 >6 >6 >6 >6 >6 >6 >6 >6 >6 >6 >6
CIG -- -- -- -- -- -- -- -- -- -- -- -- -- --
Cover FEW SKC SKC FEW FEW FEW FEW FEW FEW FEW FEW FEW FEW FEW
FltCat VFR VFR VFR VFR VFR VFR VFR VFR VFR VFR VFR VFR VFR VFR
WX -- -- -- -- -- -- -- -- -- -- -- -- -- --
WDir 270 VRB VRB 110 110 110 110 110 110 110 110 110 110 110
WSpd 4 4 4 6 6 6 6 6 6 6 6 6 6 6
WGst -- -- -- -- -- -- -- -- -- -- -- -- -- --

Raw TAF
KPHX 152328Z 1600/1706 VRB04KT P6SM SKC
  FM160400 11006KT P6SM FEW250


Raw METAR
KPHX 160051Z 27004KT 10SM FEW200 FEW250 20/M11 A3002 RMK AO2 SLP156 T02001106
KPHX 152351Z COR 00000KT 10SM FEW200 22/M11 A3002 RMK AO2 SLP156 T02171106 10222 20194 56027
KPHX 152251Z 00000KT 10SM CLR 22/M11 A3004 RMK AO2 SLP163 T02171111

METAR Board
Radar Display
Forecast Discussion

FOR SITUATIONAL AWARENESS. NOT TO BE USED FOR FLIGHT PLANNING PURPOSES.